Time;durP1;ratioP1;P1;durP2;ratioP2;P2;SDS_P1;SDS_P2;PMS_P1;PMS_P2;Temp;Humidity;BMP_temperature;BMP_pressure;BME280_temperature;BME280_humidity;BME280_pressure;Samples;Min_cycle;Max_cycle;Signal;HPM_P1;HPM_P2
2022/04/23 00:01:42;;;;;;;;;8.00;7.33;;;;;23.03;67.14;99606.38;5076350;27;45634;-62
2022/04/23 00:04:08;;;;;;;;;7.67;7.67;;;;;23.04;67.12;99601.84;5076336;27;45561;-62
2022/04/23 00:06:33;;;;;;;;;7.67;7.67;;;;;23.04;67.28;99608.09;5076558;27;45574;-62
2022/04/23 00:09:02;;;;;;;;;8.33;8.33;;;;;23.03;67.11;99602.81;5076323;27;45263;-62
2022/04/23 00:11:27;;;;;;;;;8.00;8.00;;;;;23.03;67.39;99606.38;5076770;27;45854;-62
2022/04/23 00:13:53;;;;;;;;;9.00;9.00;;;;;23.02;67.40;99598.38;5076846;28;45457;-62
2022/04/23 00:16:19;;;;;;;;;10.67;9.00;;;;;23.00;67.53;99602.00;5076614;27;45263;-62
2022/04/23 00:18:45;;;;;;;;;8.33;8.33;;;;;23.01;67.79;99613.69;5077285;27;45615;-62
2022/04/23 00:21:11;;;;;;;;;10.00;8.00;;;;;23.00;67.78;99602.00;5076341;27;46577;-62
2022/04/23 00:23:36;;;;;;;;;9.00;8.00;;;;;22.99;67.86;99592.22;5075306;27;45542;-62
2022/04/23 00:26:02;;;;;;;;;8.00;8.00;;;;;22.98;68.03;99587.78;5076567;27;45352;-62
2022/04/23 00:28:28;;;;;;;;;9.33;8.00;;;;;22.97;67.82;99588.75;5076455;27;45210;-63
2022/04/23 00:30:53;;;;;;;;;7.33;5.00;;;;;22.97;67.91;99580.69;5076728;27;46391;-62
2022/04/23 00:33:20;;;;;;;;;10.67;9.00;;;;;22.95;68.27;99579.88;5075384;27;45315;-62
2022/04/23 00:35:45;;;;;;;;;10.67;9.00;;;;;22.96;68.39;99589.72;5076345;27;45529;-62
2022/04/23 00:38:11;;;;;;;;;9.00;9.00;;;;;22.95;68.46;99579.88;5076887;28;45542;-63
2022/04/23 00:40:39;;;;;;;;;10.00;9.00;;;;;22.95;68.60;99579.03;5076077;27;46396;-62
2022/04/23 00:43:10;;;;;;;;;10.00;9.00;;;;;22.93;68.54;99580.94;5076731;27;45299;-62
2022/04/23 00:45:36;;;;;;;;;10.00;8.00;;;;;22.94;68.93;99577.28;5075019;27;45197;-62
2022/04/23 00:48:02;;;;;;;;;9.00;8.33;;;;;22.94;68.94;99575.47;5075535;27;45476;-63
2022/04/23 00:50:27;;;;;;;;;8.00;8.00;;;;;22.94;68.80;99564.69;5075831;28;45841;-62
2022/04/23 00:52:57;;;;;;;;;8.00;8.00;;;;;22.94;68.83;99571.91;5076080;27;45259;-62
2022/04/23 00:55:23;;;;;;;;;8.00;8.00;;;;;22.92;69.12;99566.63;5073154;28;45385;-62
2022/04/23 00:57:54;;;;;;;;;10.00;8.67;;;;;22.92;68.61;99557.69;5076082;27;45310;-62
2022/04/23 01:00:21;;;;;;;;;10.67;10.67;;;;;22.92;69.40;99566.63;5056743;28;46554;-62
2022/04/23 01:02:46;;;;;;;;;11.00;10.00;;;;;22.90;69.26;99552.38;5073003;27;45574;-63
2022/04/23 01:05:12;;;;;;;;;10.00;9.00;;;;;22.90;69.80;99557.75;5076344;28;45529;-62
2022/04/23 01:07:44;;;;;;;;;12.00;9.00;;;;;22.89;69.67;99547.94;5075883;27;45584;-62
2022/04/23 01:10:10;;;;;;;;;10.00;8.00;;;;;22.89;69.45;99547.09;5070917;28;46749;-62
2022/04/23 01:12:39;;;;;;;;;9.00;7.67;;;;;22.87;69.80;99549.00;5075396;27;45366;-63
2022/04/23 01:15:07;;;;;;;;;7.00;7.00;;;;;22.87;69.53;99540.91;5075462;28;45509;-62
2022/04/23 01:17:35;;;;;;;;;10.67;9.67;;;;;22.85;69.75;99535.63;5076411;27;45347;-62
2022/04/23 01:20:07;;;;;;;;;9.00;8.33;;;;;22.87;69.95;99540.91;5075715;27;46538;-63
2022/04/23 01:22:33;;;;;;;;;10.67;9.00;;;;;22.86;69.98;99544.56;5075634;27;45348;-62
2022/04/23 01:25:00;;;;;;;;;9.00;9.00;;;;;22.86;69.90;99533.81;5075889;28;45483;-62
2022/04/23 01:27:28;;;;;;;;;10.00;10.00;;;;;22.84;70.16;99535.69;5075343;27;45527;-62
2022/04/23 01:29:55;;;;;;;;;12.67;9.00;;;;;22.85;70.14;99542.81;5075220;27;45727;-63
2022/04/23 01:32:22;;;;;;;;;11.33;9.00;;;;;22.84;70.34;99547.31;5075416;28;46125;-62
2022/04/23 01:34:47;;;;;;;;;9.00;9.00;;;;;22.85;70.00;99546.41;5074169;28;46331;-62
2022/04/23 01:37:13;;;;;;;;;11.67;10.00;;;;;22.84;70.51;99535.69;5075851;27;45356;-62
2022/04/23 01:39:39;;;;;;;;;12.33;9.00;;;;;22.83;70.31;99537.53;5075604;27;46779;-63
2022/04/23 01:42:05;;;;;;;;;10.67;9.00;;;;;22.83;70.23;99531.28;5075171;27;45428;-62
2022/04/23 01:44:31;;;;;;;;;10.00;9.00;;;;;22.82;70.19;99535.81;5075696;28;45270;-62
2022/04/23 01:46:56;;;;;;;;;10.67;10.00;;;;;22.81;70.32;99531.38;5075671;27;45267;-63
2022/04/23 01:49:23;;;;;;;;;9.33;9.00;;;;;22.80;70.38;99531.44;5074605;28;46285;-62
2022/04/23 01:51:48;;;;;;;;;8.33;8.33;;;;;22.80;70.11;99526.97;5075509;28;47265;-63
2022/04/23 01:54:14;;;;;;;;;9.00;9.00;;;;;22.80;70.28;99526.97;5075309;27;47367;-62
2022/04/23 01:56:39;;;;;;;;;9.00;9.00;;;;;22.79;70.47;99524.34;5076904;27;45263;-62
2022/04/23 01:59:05;;;;;;;;;9.00;9.00;;;;;22.79;70.03;99519.81;5078445;27;46117;-62
2022/04/23 02:01:30;;;;;;;;;10.33;9.00;;;;;22.79;70.16;99527.91;5078550;28;48572;-63
2022/04/23 02:03:55;;;;;;;;;11.33;9.33;;;;;22.78;70.10;99520.78;5078185;27;45201;-63
2022/04/23 02:06:21;;;;;;;;;9.00;9.00;;;;;22.78;70.20;99523.47;5079101;28;45379;-62
2022/04/23 02:08:50;;;;;;;;;10.33;9.00;;;;;22.78;70.26;99514.53;5076857;28;47942;-62
2022/04/23 02:11:15;;;;;;;;;12.00;11.00;;;;;22.78;70.00;99509.16;5080162;28;45300;-62
2022/04/23 02:13:41;;;;;;;;;8.00;7.00;;;;;22.77;69.77;99521.75;5079991;27;51781;-62
2022/04/23 02:16:06;;;;;;;;;11.00;11.00;;;;;22.77;69.92;99516.38;5078969;28;45387;-63
2022/04/23 02:18:32;;;;;;;;;9.67;9.33;;;;;22.77;70.06;99513.69;5078713;27;46620;-62
2022/04/23 02:20:58;;;;;;;;;7.67;7.67;;;;;22.77;69.47;99516.38;5078351;27;45501;-63
2022/04/23 02:23:23;;;;;;;;;9.33;9.33;;;;;22.77;69.89;99513.69;5078039;27;45225;-63
2022/04/23 02:25:50;;;;;;;;;11.67;10.67;;;;;22.77;69.70;99505.59;5078584;27;45191;-62
2022/04/23 02:28:25;;;;;;;;;9.00;9.00;;;;;22.77;69.89;99519.06;5078895;27;45644;-62
2022/04/23 02:30:51;;;;;;;;;10.00;10.00;;;;;22.77;70.04;99510.13;5075597;27;47775;-62
2022/04/23 02:33:16;;;;;;;;;9.67;9.00;;;;;22.78;69.79;99514.53;5073085;28;45145;-63
2022/04/23 02:35:44;;;;;;;;;11.00;11.00;;;;;22.77;69.91;99504.75;5078628;28;45442;-62
2022/04/23 02:38:10;;;;;;;;;9.67;9.33;;;;;22.77;69.82;99511.00;5077238;27;47485;-63
2022/04/23 02:40:35;;;;;;;;;9.67;9.67;;;;;22.77;69.78;99499.34;5078447;28;45325;-62
2022/04/23 02:43:03;;;;;;;;;12.00;11.33;;;;;22.75;69.57;99496.78;5078077;28;45417;-63
2022/04/23 02:45:28;;;;;;;;;11.00;9.67;;;;;22.75;69.57;99496.78;5078374;28;45632;-62
2022/04/23 02:47:56;;;;;;;;;9.33;9.33;;;;;22.76;69.77;99487.72;5077080;27;46334;-62
2022/04/23 02:50:29;;;;;;;;;10.67;10.67;;;;;22.74;69.51;99492.31;5077302;27;45534;-63
2022/04/23 02:52:56;;;;;;;;;10.00;9.00;;;;;22.74;69.70;99487.84;5078340;27;45183;-62
2022/04/23 02:55:24;;;;;;;;;10.33;10.33;;;;;22.73;69.70;99475.31;5078087;27;45489;-62
2022/04/23 02:58:02;;;;;;;;;11.00;11.00;;;;;22.75;69.49;99475.25;5078137;27;47372;-62
2022/04/23 03:00:31;;;;;;;;;11.00;9.00;;;;;22.77;69.82;99484.06;5076891;28;45427;-62
2022/04/23 03:02:57;;;;;;;;;16.00;11.33;;;;;22.80;69.61;99477.63;5076926;27;45598;-62
2022/04/23 03:05:22;;;;;;;;;11.00;10.00;;;;;22.80;69.54;99470.44;5077356;27;45158;-62
2022/04/23 03:07:48;;;;;;;;;7.67;7.67;;;;;22.82;69.63;99464.97;5076684;27;45764;-62
2022/04/23 03:10:15;;;;;;;;;11.00;9.67;;;;;22.85;69.67;99478.22;5077257;27;45401;-62
2022/04/23 03:12:41;;;;;;;;;10.00;10.00;;;;;22.86;69.11;99469.19;5077839;27;45342;-62
2022/04/23 03:15:11;;;;;;;;;10.33;9.00;;;;;22.87;69.11;99471.78;5076815;27;45604;-62
2022/04/23 03:17:39;;;;;;;;;13.67;11.67;;;;;22.87;69.23;99469.09;5076724;28;45701;-63
2022/04/23 03:20:05;;;;;;;;;9.67;9.00;;;;;22.89;69.16;99469.03;5077241;27;45557;-62
2022/04/23 03:22:31;;;;;;;;;10.00;10.00;;;;;22.89;69.01;99453.75;5077672;27;45360;-63
2022/04/23 03:24:56;;;;;;;;;12.00;11.00;;;;;22.90;69.06;99462.69;5077532;27;45637;-62
2022/04/23 03:27:22;;;;;;;;;11.00;10.00;;;;;22.88;68.91;99460.09;5075690;27;46298;-62
2022/04/23 03:29:47;;;;;;;;;12.00;10.00;;;;;22.90;68.82;99460.84;5077095;27;45326;-63
2022/04/23 03:32:15;;;;;;;;;10.00;9.00;;;;;22.91;68.65;99461.75;5077266;27;45517;-63
2022/04/23 03:34:40;;;;;;;;;10.33;10.33;;;;;22.91;68.81;99453.66;5069679;28;45134;-62
2022/04/23 03:37:06;;;;;;;;;9.67;9.67;;;;;22.91;68.83;99453.66;5077450;27;46495;-62
2022/04/23 03:39:32;;;;;;;;;13.00;11.67;;;;;22.90;69.05;99452.78;5077172;28;45539;-63
2022/04/23 03:41:58;;;;;;;;;12.00;9.67;;;;;22.90;69.20;99444.69;5077046;27;45617;-62
2022/04/23 03:44:23;;;;;;;;;13.00;11.67;;;;;22.90;68.75;99442.00;5077537;27;45418;-62
2022/04/23 03:46:49;;;;;;;;;13.33;11.00;;;;;22.90;68.92;99446.53;5076622;28;45360;-62
2022/04/23 03:49:14;;;;;;;;;11.67;11.67;;;;;22.90;68.66;99436.63;5077330;27;45319;-62
2022/04/23 03:51:41;;;;;;;;;10.67;10.67;;;;;22.90;68.70;99433.06;5075698;28;47246;-62
2022/04/23 03:54:07;;;;;;;;;10.00;10.00;;;;;22.89;68.94;99428.66;5076066;28;45479;-63
2022/04/23 03:56:32;;;;;;;;;11.00;11.00;;;;;22.89;68.78;99429.50;5076927;28;46333;-62
2022/04/23 03:58:58;;;;;;;;;13.33;12.00;;;;;22.89;68.93;99423.28;5077405;27;45467;-62
2022/04/23 04:01:23;;;;;;;;;13.00;11.00;;;;;22.87;68.89;99420.66;5076813;28;45464;-62
2022/04/23 04:03:49;;;;;;;;;11.67;11.67;;;;;22.86;68.99;99421.63;5076685;27;45634;-62
2022/04/23 04:06:14;;;;;;;;;12.33;10.00;;;;;22.86;68.86;99424.31;5077166;27;45572;-63
2022/04/23 04:08:42;;;;;;;;;15.67;15.33;;;;;22.87;68.99;99434.09;5076559;27;45340;-62
2022/04/23 04:11:07;;;;;;;;;12.67;11.00;;;;;22.85;68.80;99430.66;5074677;28;45303;-62
2022/04/23 04:13:33;;;;;;;;;13.33;11.67;;;;;22.85;68.91;99425.28;5077362;28;45733;-62
2022/04/23 04:15:59;;;;;;;;;13.00;12.00;;;;;22.84;68.83;99412.75;5076116;27;46042;-62
2022/04/23 04:18:24;;;;;;;;;14.33;13.33;;;;;22.85;68.62;99419.91;5075973;27;45420;-63
2022/04/23 04:20:53;;;;;;;;;13.67;11.67;;;;;22.84;68.82;99410.06;5075456;27;45646;-63
2022/04/23 04:23:20;;;;;;;;;13.00;11.67;;;;;22.85;69.16;99419.00;5073189;28;45484;-62
2022/04/23 04:25:47;;;;;;;;;14.00;11.33;;;;;22.84;68.88;99415.44;5075851;27;47461;-63
2022/04/23 04:28:14;;;;;;;;;14.33;11.00;;;;;22.84;68.68;99414.59;5075398;27;45483;-63
2022/04/23 04:33:23;;;;;;;;;11.33;11.33;;;;;22.82;68.92;99416.50;5076420;28;45404;-62
2022/04/23 04:35:48;;;;;;;;;10.00;10.00;;;;;22.82;69.00;99421.91;5075078;28;46323;-62
2022/04/23 04:38:14;;;;;;;;;11.67;11.67;;;;;22.81;68.87;99420.16;5076383;28;45290;-62
2022/04/23 04:40:40;;;;;;;;;15.00;13.33;;;;;22.81;68.78;99412.09;5076689;27;45542;-62
2022/04/23 04:43:06;;;;;;;;;15.00;12.00;;;;;22.81;68.90;99414.78;5075131;28;47214;-62
2022/04/23 04:45:33;;;;;;;;;9.33;9.33;;;;;22.82;68.79;99416.50;5066384;28;48289;-62
2022/04/23 04:47:58;;;;;;;;;11.67;11.67;;;;;22.81;68.86;99415.66;5071362;28;46455;-62
2022/04/23 04:50:24;;;;;;;;;11.00;9.00;;;;;22.80;68.86;99413.94;5065164;28;45248;-63
2022/04/23 04:52:50;;;;;;;;;14.33;12.00;;;;;22.78;68.61;99415.84;5072880;27;45635;-62
2022/04/23 04:55:17;;;;;;;;;10.00;10.00;;;;;22.80;68.90;99419.31;5076247;27;46372;-62
2022/04/23 04:57:42;;;;;;;;;10.00;10.00;;;;;22.78;68.74;99415.84;5075209;28;45925;-62
2022/04/23 05:00:09;;;;;;;;;11.33;10.67;;;;;22.79;68.89;99412.16;5068140;28;45260;-63
2022/04/23 05:02:35;;;;;;;;;10.00;10.00;;;;;22.78;68.74;99415.84;5075060;27;46845;-62
2022/04/23 05:05:01;;;;;;;;;10.33;10.00;;;;;22.77;68.91;99411.41;5201906;22;47740;-62
2022/04/23 05:07:26;;;;;;;;;10.00;10.00;;;;;22.77;68.96;99411.41;5098654;27;49339;-62
2022/04/23 05:09:51;;;;;;;;;8.00;8.00;;;;;22.78;68.69;99417.66;5092410;27;45404;-62
2022/04/23 05:12:17;;;;;;;;;11.00;11.00;;;;;22.77;68.79;99414.09;5096639;27;45628;-62
2022/04/23 05:14:42;;;;;;;;;11.67;11.00;;;;;22.77;68.79;99408.72;5097917;27;47174;-62
2022/04/23 05:17:08;;;;;;;;;10.00;9.00;;;;;22.77;68.82;99411.41;5096747;27;45283;-62
2022/04/23 05:19:33;;;;;;;;;11.00;10.00;;;;;22.75;68.67;99416.91;5091794;27;45216;-62
2022/04/23 05:21:59;;;;;;;;;10.00;10.00;;;;;22.77;68.74;99424.00;5092285;27;45410;-62
2022/04/23 05:24:24;;;;;;;;;8.67;8.00;;;;;22.77;68.72;99419.50;5096282;27;46500;-62
2022/04/23 05:26:50;;;;;;;;;12.00;11.00;;;;;22.77;68.66;99421.31;5087491;27;46080;-62
2022/04/23 05:29:16;;;;;;;;;10.67;10.67;;;;;22.75;68.67;99416.91;5091206;27;45316;-62
2022/04/23 05:31:41;;;;;;;;;12.00;9.33;;;;;22.76;68.68;99412.38;5097989;27;45406;-62
2022/04/23 05:34:07;;;;;;;;;11.33;9.33;;;;;22.77;68.30;99415.94;5094968;27;46598;-62
2022/04/23 05:36:32;;;;;;;;;8.33;8.33;;;;;22.76;68.41;99415.06;5091623;27;45444;-63
2022/04/23 05:38:58;;;;;;;;;9.67;9.67;;;;;22.75;68.40;99406.13;5093533;27;45500;-63
2022/04/23 05:41:23;;;;;;;;;9.33;9.33;;;;;22.76;68.86;99415.06;5093860;27;45358;-63
2022/04/23 05:43:49;;;;;;;;;10.67;10.67;;;;;22.75;68.55;99410.66;5098997;27;47362;-63
2022/04/23 05:46:16;;;;;;;;;11.33;10.33;;;;;22.78;68.45;99412.28;5097119;27;45526;-63
2022/04/23 05:48:42;;;;;;;;;10.67;10.33;;;;;22.75;68.53;99405.28;5099520;27;45325;-63
2022/04/23 05:51:07;;;;;;;;;11.00;9.67;;;;;22.76;68.60;99404.31;5098977;27;45555;-63
2022/04/23 05:53:32;;;;;;;;;9.33;9.33;;;;;22.76;68.56;99407.00;5093662;27;46449;-63
2022/04/23 05:55:58;;;;;;;;;11.67;10.33;;;;;22.76;68.61;99404.31;5099498;27;45210;-63
2022/04/23 05:58:23;;;;;;;;;8.33;8.33;;;;;22.76;68.64;99398.94;5098942;27;45407;-63
2022/04/23 06:00:50;;;;;;;;;10.67;10.67;;;;;22.74;68.43;99390.97;5098288;27;54714;-63
2022/04/23 06:03:15;;;;;;;;;10.00;10.00;;;;;22.75;68.82;99383.75;5097022;27;46524;-63
2022/04/23 06:05:41;;;;;;;;;9.33;8.67;;;;;22.76;68.52;99396.22;5095903;27;59509;-63
2022/04/23 06:08:07;;;;;;;;;10.33;10.33;;;;;22.76;68.59;99388.16;5096655;27;45917;-63
2022/04/23 06:10:32;;;;;;;;;14.00;13.33;;;;;22.77;68.60;99394.41;5101595;27;45417;-63
2022/04/23 06:12:57;;;;;;;;;12.33;10.00;;;;;22.77;68.48;99389.03;5098876;27;61792;-63
2022/04/23 06:15:23;;;;;;;;;10.00;10.00;;;;;22.74;68.57;99393.66;5096725;27;56156;-62
2022/04/23 06:17:48;;;;;;;;;11.33;11.00;;;;;22.75;68.64;99402.59;5098581;27;53732;-63
2022/04/23 06:20:14;;;;;;;;;9.67;8.00;;;;;22.75;68.48;99400.75;5097163;27;45677;-63
2022/04/23 06:22:39;;;;;;;;;9.33;9.33;;;;;22.74;68.50;99404.41;5098043;27;46392;-63
2022/04/23 06:25:06;;;;;;;;;10.00;10.00;;;;;22.77;68.70;99410.56;5099078;27;45494;-62
2022/04/23 06:27:31;;;;;;;;;12.33;10.33;;;;;22.77;68.77;99419.50;5099154;27;45372;-63
2022/04/23 06:29:58;;;;;;;;;10.33;10.33;;;;;22.77;68.51;99419.50;5081200;27;45577;-63
2022/04/23 06:32:23;;;;;;;;;9.33;9.00;;;;;22.79;68.92;99416.69;5098851;27;47439;-63
2022/04/23 06:34:49;;;;;;;;;10.33;9.67;;;;;22.79;68.71;99412.16;5097832;27;45380;-63
2022/04/23 06:37:18;;;;;;;;;11.67;8.67;;;;;22.81;69.16;99423.72;5097969;27;45479;-63
2022/04/23 06:39:43;;;;;;;;;12.00;11.67;;;;;22.83;68.67;99424.47;5098372;27;45523;-63
2022/04/23 06:42:09;;;;;;;;;13.67;10.00;;;;;22.86;68.82;99423.44;5097674;27;61943;-64
2022/04/23 06:44:35;;;;;;;;;11.00;10.00;;;;;22.87;68.75;99407.19;5096593;27;59127;-63
2022/04/23 06:47:00;;;;;;;;;12.33;11.00;;;;;22.89;68.58;99416.06;5098111;27;45260;-63
2022/04/23 06:49:27;;;;;;;;;12.00;10.00;;;;;22.91;68.59;99429.44;5097278;27;45418;-63
2022/04/23 06:51:54;;;;;;;;;12.33;10.00;;;;;22.94;68.60;99424.72;5097650;27;47473;-63
2022/04/23 06:54:19;;;;;;;;;13.00;10.33;;;;;22.94;68.80;99432.78;5097846;27;45449;-64
2022/04/23 06:56:44;;;;;;;;;11.67;9.67;;;;;22.97;68.46;99412.91;5097377;27;58383;-63
2022/04/23 06:59:10;;;;;;;;;10.67;9.33;;;;;22.96;68.46;99414.72;5095668;27;45650;-63
2022/04/23 07:01:36;;;;;;;;;10.67;9.67;;;;;22.98;68.53;99420.88;5096910;27;55214;-63
2022/04/23 07:04:01;;;;;;;;;11.67;11.67;;;;;22.99;68.40;99414.53;5097742;27;45508;-63
2022/04/23 07:06:27;;;;;;;;;12.00;10.00;;;;;23.03;68.43;99417.03;5100742;27;45681;-62
2022/04/23 07:08:52;;;;;;;;;11.67;10.00;;;;;23.03;68.29;99419.72;5096894;27;45329;-62
2022/04/23 07:11:17;;;;;;;;;9.33;8.00;;;;;23.03;68.39;99425.13;5097167;27;46205;-63
2022/04/23 07:13:43;;;;;;;;;10.00;8.33;;;;;23.05;68.20;99415.97;5093998;27;61397;-63
2022/04/23 07:16:09;;;;;;;;;10.00;10.00;;;;;23.05;68.20;99420.50;5094459;27;45935;-63
2022/04/23 07:18:38;;;;;;;;;12.00;11.00;;;;;23.05;68.47;99420.50;5094650;27;45765;-64
2022/04/23 07:21:04;;;;;;;;;11.00;11.00;;;;;23.06;68.10;99415.00;5090368;27;47472;-64
2022/04/23 07:26:13;;;;;;;;;10.00;10.00;;;;;23.06;68.09;99412.31;5092054;27;45452;-66
2022/04/23 07:28:39;;;;;;;;;10.00;9.00;;;;;23.06;68.10;99397.97;5088343;27;45251;-63
2022/04/23 07:31:05;;;;;;;;;9.33;9.33;;;;;23.06;68.13;99404.22;5090174;27;46654;-61
2022/04/23 07:38:58;;;;;;;;;10.67;9.00;;;;;23.07;68.04;99405.13;5093383;27;45539;-63
2022/04/23 07:41:24;;;;;;;;;10.00;10.00;;;;;23.06;68.51;99398.84;5077445;27;54480;-62
2022/04/23 07:43:49;;;;;;;;;10.67;10.67;;;;;23.07;68.11;99394.34;5087119;27;45592;-64
2022/04/23 07:46:14;;;;;;;;;10.33;10.33;;;;;23.06;68.20;99389.91;5091708;27;45497;-63
2022/04/23 07:48:40;;;;;;;;;9.67;9.67;;;;;23.08;68.18;99396.94;5093436;27;45443;-63
2022/04/23 07:51:05;;;;;;;;;10.00;10.00;;;;;23.07;68.17;99395.22;5095124;27;47098;-62
2022/04/23 07:53:31;;;;;;;;;11.67;11.67;;;;;23.10;68.20;99404.91;5092410;27;45248;-63
2022/04/23 07:55:56;;;;;;;;;10.00;10.00;;;;;23.12;68.29;99403.88;5095032;27;45578;-61
2022/04/23 07:58:22;;;;;;;;;10.33;10.33;;;;;23.14;68.34;99406.44;5094668;27;45492;-62
2022/04/23 08:00:47;;;;;;;;;12.33;9.67;;;;;23.14;68.33;99395.69;5092702;27;46647;-63
2022/04/23 08:03:14;;;;;;;;;8.67;8.67;;;;;23.16;68.32;99388.34;5089569;27;45815;-65
2022/04/23 08:05:39;;;;;;;;;13.33;10.33;;;;;23.16;68.63;99389.22;5095543;27;45528;-63
2022/04/23 08:08:05;;;;;;;;;12.00;12.00;;;;;23.18;68.57;99381.06;5091429;27;45323;-63
2022/04/23 08:10:31;;;;;;;;;11.33;10.00;;;;;23.20;68.48;99389.91;5086031;27;47607;-64
2022/04/23 08:12:56;;;;;;;;;10.67;10.67;;;;;23.20;68.26;99379.13;5093046;27;45403;-63
2022/04/23 08:15:29;;;;;;;;;10.67;10.67;;;;;23.21;68.56;99378.16;5087757;27;45530;-63
2022/04/23 08:17:54;;;;;;;;;12.67;11.33;;;;;23.22;68.23;99386.16;5088041;27;45542;-64
2022/04/23 08:20:20;;;;;;;;;10.33;10.00;;;;;23.23;68.24;99379.81;5085291;27;47608;-65
2022/04/23 08:22:45;;;;;;;;;10.00;8.33;;;;;23.24;68.16;99375.28;5085492;27;45451;-65
2022/04/23 08:25:11;;;;;;;;;10.00;9.67;;;;;23.23;68.18;99379.81;5092819;27;45343;-64
2022/04/23 08:30:49;;;;;;;;;12.00;10.00;;;;;23.24;67.89;99376.13;5086918;27;45804;-64
2022/04/23 08:33:14;;;;;;;;;14.67;12.00;;;;;23.24;67.92;99372.59;5091353;27;45491;-64
2022/04/23 08:35:40;;;;;;;;;13.00;12.00;;;;;23.25;68.27;99385.94;5096055;27;46076;-64
2022/04/23 08:38:07;;;;;;;;;11.33;11.33;;;;;23.24;68.14;99365.38;5097072;27;45403;-64
2022/04/23 08:40:44;;;;;;;;;11.33;11.33;;;;;23.24;68.07;99365.38;5095868;27;48444;-64
2022/04/23 08:43:10;;;;;;;;;12.33;12.33;;;;;23.24;68.08;99369.91;5097025;27;45469;-64
2022/04/23 08:45:36;;;;;;;;;9.67;9.67;;;;;23.24;68.02;99369.91;5096697;27;45467;-64
2022/04/23 08:48:06;;;;;;;;;11.33;11.33;;;;;23.23;67.92;99362.78;5095773;27;45350;-65
2022/04/23 08:50:36;;;;;;;;;12.00;11.00;;;;;23.22;68.04;99361.03;5095937;27;46569;-64
2022/04/23 08:53:02;;;;;;;;;12.00;10.33;;;;;23.23;67.75;99363.66;5093636;27;45564;-64
2022/04/23 08:55:27;;;;;;;;;10.33;9.67;;;;;23.21;68.10;99362.84;5094660;27;45944;-63
2022/04/23 08:57:54;;;;;;;;;10.00;9.00;;;;;23.22;67.96;99363.72;5093535;27;45551;-63
2022/04/23 09:00:19;;;;;;;;;13.67;13.00;;;;;23.20;67.96;99360.28;5093449;27;47774;-63
2022/04/23 09:02:45;;;;;;;;;11.33;10.33;;;;;23.19;68.19;99369.31;5093729;27;45337;-63
2022/04/23 09:05:12;;;;;;;;;14.67;13.00;;;;;23.20;68.12;99371.91;5095350;27;46041;-63
2022/04/23 09:07:38;;;;;;;;;13.00;13.00;;;;;23.18;67.92;99370.28;5098480;27;45552;-63
2022/04/23 09:10:06;;;;;;;;;12.67;12.67;;;;;23.19;67.92;99370.19;5097524;27;47413;-63
2022/04/23 09:12:31;;;;;;;;;12.00;12.00;;;;;23.18;68.12;99367.59;5099418;27;45367;-63
2022/04/23 09:23:39;;;;;;;;;16.00;11.33;;;;;23.17;68.16;99360.47;5098270;27;45679;-63
2022/04/23 09:23:41;;;;;;;;;13.00;13.00;;;;;23.15;67.87;99368.66;5099477;27;45283;-63
2022/04/23 09:26:17;;;;;;;;;11.33;11.33;;;;;23.15;68.41;99365.09;5098846;27;45499;-63
2022/04/23 09:28:47;;;;;;;;;12.00;12.00;;;;;23.13;68.39;99367.03;5094926;27;46655;-63
2022/04/23 09:31:13;;;;;;;;;13.33;12.00;;;;;23.13;68.56;99369.72;5098995;27;46863;-63
2022/04/23 09:33:48;;;;;;;;;12.67;11.67;;;;;23.14;68.49;99368.75;5098930;27;45595;-63
2022/04/23 09:36:14;;;;;;;;;11.67;11.67;;;;;23.13;68.28;99381.34;5098987;27;45278;-63
2022/04/23 09:38:40;;;;;;;;;11.33;11.33;;;;;23.12;68.76;99368.00;5099021;27;45515;-63
2022/04/23 09:41:21;;;;;;;;;12.33;10.00;;;;;23.12;68.33;99370.69;5098984;27;47220;-62
2022/04/23 09:43:49;;;;;;;;;12.67;11.67;;;;;23.11;68.41;99369.78;5097561;27;45765;-63
2022/04/23 09:46:15;;;;;;;;;11.33;11.33;;;;;23.10;68.74;99367.22;5097626;27;45366;-64
2022/04/23 09:48:44;;;;;;;;;10.33;10.33;;;;;23.08;68.33;99358.38;5097839;27;45287;-63
2022/04/23 09:51:24;;;;;;;;;13.67;11.67;;;;;23.08;68.62;99353.00;5098918;27;47641;-63
2022/04/23 09:53:50;;;;;;;;;11.67;10.00;;;;;23.08;68.94;99355.69;5098108;27;45365;-63
2022/04/23 09:56:16;;;;;;;;;10.00;10.00;;;;;23.08;68.77;99361.06;5096383;27;45383;-63
2022/04/23 09:58:41;;;;;;;;;13.67;12.00;;;;;23.07;68.67;99360.22;5098671;27;45706;-63
2022/04/23 10:01:07;;;;;;;;;13.67;12.33;;;;;23.06;68.91;99361.16;5080393;27;46603;-63
2022/04/23 10:03:33;;;;;;;;;12.67;12.00;;;;;23.07;68.79;99356.66;5097084;27;46959;-63
2022/04/23 10:06:02;;;;;;;;;12.00;12.00;;;;;23.06;68.56;99365.66;5096953;27;46724;-63
2022/04/23 10:08:41;;;;;;;;;13.00;10.67;;;;;23.05;68.94;99361.25;5096702;27;45677;-63
2022/04/23 10:11:16;;;;;;;;;10.00;10.00;;;;;23.05;69.01;99366.63;5098358;27;46698;-63
2022/04/23 10:13:46;;;;;;;;;10.33;10.33;;;;;23.04;68.92;99352.31;5097424;27;46272;-62
2022/04/23 10:16:13;;;;;;;;;11.33;11.33;;;;;23.04;68.78;99360.38;5098035;27;45454;-62
2022/04/23 10:18:39;;;;;;;;;11.00;11.00;;;;;23.05;69.15;99363.94;5097242;27;45511;-62
2022/04/23 10:21:10;;;;;;;;;12.67;10.67;;;;;23.05;69.29;99356.72;5098368;27;46576;-62
2022/04/23 10:23:43;;;;;;;;;12.33;12.33;;;;;23.06;69.05;99354.91;5097903;27;45338;-63
2022/04/23 10:26:24;;;;;;;;;11.00;10.33;;;;;23.05;69.14;99354.03;5098699;27;45482;-63
2022/04/23 10:28:50;;;;;;;;;12.00;12.00;;;;;23.05;69.21;99354.03;5094343;27;46345;-63
2022/04/23 10:31:17;;;;;;;;;13.67;13.67;;;;;23.06;69.37;99355.75;5094538;27;46181;-63
2022/04/23 10:33:49;;;;;;;;;13.00;12.00;;;;;23.05;69.20;99347.78;5097998;27;45532;-62
2022/04/23 10:36:16;;;;;;;;;11.00;11.00;;;;;23.04;69.14;99346.94;5097791;27;45569;-62
2022/04/23 10:38:44;;;;;;;;;11.00;11.00;;;;;23.04;69.43;99351.44;5098040;27;45508;-63
2022/04/23 10:41:11;;;;;;;;;13.00;11.00;;;;;23.04;69.33;99346.06;5097826;27;47417;-63
2022/04/23 10:43:58;;;;;;;;;9.00;9.00;;;;;23.03;69.19;99347.91;5096693;27;45391;-62
2022/04/23 10:46:40;;;;;;;;;13.33;12.33;;;;;23.03;69.56;99338.97;5092167;27;45365;-63
2022/04/23 10:49:22;;;;;;;;;13.00;12.00;;;;;23.02;69.54;99342.63;5097341;27;45573;-63
2022/04/23 10:51:55;;;;;;;;;11.67;11.00;;;;;23.02;69.64;99342.63;5095939;27;47471;-62
2022/04/23 10:54:40;;;;;;;;;12.00;12.00;;;;;22.99;69.55;99339.16;5096787;27;45638;-62
2022/04/23 10:57:15;;;;;;;;;12.00;10.67;;;;;22.99;69.64;99332.91;5097427;27;45507;-62
2022/04/23 10:59:44;;;;;;;;;12.67;11.33;;;;;22.99;69.78;99344.53;5096647;27;45821;-62
2022/04/23 11:02:19;;;;;;;;;11.00;10.00;;;;;22.99;69.67;99341.84;5111821;27;48957;-63
2022/04/23 11:13:49;;;;;;;;;10.67;10.67;;;;;22.98;69.97;99336.56;5097288;27;45523;-63
2022/04/23 11:16:19;;;;;;;;;12.00;12.00;;;;;22.98;69.77;99328.47;5095914;27;45386;-63
2022/04/23 11:18:46;;;;;;;;;13.00;12.00;;;;;22.99;69.85;99332.91;5097281;27;45617;-63
2022/04/23 11:21:20;;;;;;;;;14.67;12.00;;;;;22.99;69.82;99330.22;5096334;27;45453;-64
2022/04/23 11:23:47;;;;;;;;;16.33;14.00;;;;;22.98;69.91;99332.03;5096790;27;47063;-64
2022/04/23 11:26:22;;;;;;;;;16.33;11.67;;;;;22.97;70.05;99327.63;5096573;27;45411;-63
2022/04/23 11:28:57;;;;;;;;;13.00;12.00;;;;;22.97;69.90;99324.94;5095736;27;45372;-64
2022/04/23 11:31:22;;;;;;;;;11.67;11.00;;;;;22.97;70.12;99322.25;5096760;27;45573;-65
2022/04/23 11:33:55;;;;;;;;;13.00;11.00;;;;;22.96;70.10;99320.50;5096992;27;46255;-62
2022/04/23 11:36:31;;;;;;;;;13.00;12.00;;;;;22.98;70.41;99301.56;5096211;27;45583;-63
2022/04/23 11:38:58;;;;;;;;;11.33;10.33;;;;;22.97;69.94;99306.09;5095852;27;45500;-62
2022/04/23 11:41:31;;;;;;;;;13.67;10.33;;;;;22.97;70.28;99319.53;5097021;27;45563;-64
2022/04/23 11:43:56;;;;;;;;;11.67;11.67;;;;;22.98;69.88;99309.63;5096465;27;46583;-62
2022/04/23 11:46:22;;;;;;;;;10.67;10.00;;;;;22.99;70.14;99308.66;5094643;27;45395;-64
2022/04/23 11:48:48;;;;;;;;;10.00;10.00;;;;;22.99;70.25;99305.97;5096165;27;45276;-63
2022/04/23 11:51:19;;;;;;;;;8.67;8.67;;;;;22.98;70.35;99294.34;5096122;27;45534;-63